sensor_id;sensor_type;location;lat;lon;timestamp;P1;durP1;ratioP1;P2;durP2;ratioP2
13979;SDS011;73871;49.900;8.594;2023-11-21T00:01:15;6.10;;;2.33;;
13979;SDS011;73871;49.900;8.594;2023-11-21T00:03:43;8.03;;;2.83;;
13979;SDS011;73871;49.900;8.594;2023-11-21T00:06:10;7.27;;;2.80;;
13979;SDS011;73871;49.900;8.594;2023-11-21T00:08:37;6.47;;;2.30;;
13979;SDS011;73871;49.900;8.594;2023-11-21T00:11:04;8.37;;;2.57;;
13979;SDS011;73871;49.900;8.594;2023-11-21T00:13:33;7.93;;;3.27;;
13979;SDS011;73871;49.900;8.594;2023-11-21T00:16:01;7.10;;;2.60;;
13979;SDS011;73871;49.900;8.594;2023-11-21T00:18:28;6.63;;;3.27;;
13979;SDS011;73871;49.900;8.594;2023-11-21T00:20:54;5.60;;;2.87;;
13979;SDS011;73871;49.900;8.594;2023-11-21T00:23:21;4.97;;;2.87;;
13979;SDS011;73871;49.900;8.594;2023-11-21T00:25:48;5.53;;;2.87;;
13979;SDS011;73871;49.900;8.594;2023-11-21T00:28:14;8.27;;;2.93;;
13979;SDS011;73871;49.900;8.594;2023-11-21T00:30:41;6.17;;;3.00;;
13979;SDS011;73871;49.900;8.594;2023-11-21T00:33:08;9.37;;;3.37;;
13979;SDS011;73871;49.900;8.594;2023-11-21T00:35:35;8.23;;;3.43;;
13979;SDS011;73871;49.900;8.594;2023-11-21T00:38:02;7.23;;;3.07;;
13979;SDS011;73871;49.900;8.594;2023-11-21T00:40:31;6.10;;;3.53;;
13979;SDS011;73871;49.900;8.594;2023-11-21T00:43:00;7.87;;;3.60;;
13979;SDS011;73871;49.900;8.594;2023-11-21T00:45:29;6.93;;;3.57;;
13979;SDS011;73871;49.900;8.594;2023-11-21T00:47:56;6.43;;;3.40;;
13979;SDS011;73871;49.900;8.594;2023-11-21T00:50:25;7.23;;;3.17;;
13979;SDS011;73871;49.900;8.594;2023-11-21T00:52:55;6.80;;;4.20;;
13979;SDS011;73871;49.900;8.594;2023-11-21T00:55:22;5.97;;;3.13;;
13979;SDS011;73871;49.900;8.594;2023-11-21T00:57:50;6.40;;;3.60;;
13979;SDS011;73871;49.900;8.594;2023-11-21T01:00:16;6.87;;;3.80;;
13979;SDS011;73871;49.900;8.594;2023-11-21T01:02:44;7.97;;;3.70;;
13979;SDS011;73871;49.900;8.594;2023-11-21T01:05:11;6.60;;;3.50;;
13979;SDS011;73871;49.900;8.594;2023-11-21T01:07:39;6.37;;;3.40;;
13979;SDS011;73871;49.900;8.594;2023-11-21T01:10:06;6.20;;;3.90;;
13979;SDS011;73871;49.900;8.594;2023-11-21T01:12:34;8.30;;;4.03;;
13979;SDS011;73871;49.900;8.594;2023-11-21T01:15:04;7.97;;;4.50;;
13979;SDS011;73871;49.900;8.594;2023-11-21T01:17:33;10.07;;;4.70;;
13979;SDS011;73871;49.900;8.594;2023-11-21T01:20:01;9.53;;;5.10;;
13979;SDS011;73871;49.900;8.594;2023-11-21T01:22:29;7.87;;;5.40;;
13979;SDS011;73871;49.900;8.594;2023-11-21T01:24:56;8.37;;;5.30;;
13979;SDS011;73871;49.900;8.594;2023-11-21T01:27:23;8.47;;;5.40;;
13979;SDS011;73871;49.900;8.594;2023-11-21T01:29:49;9.30;;;5.17;;
13979;SDS011;73871;49.900;8.594;2023-11-21T01:32:20;9.50;;;5.43;;
13979;SDS011;73871;49.900;8.594;2023-11-21T01:34:47;9.37;;;5.63;;
13979;SDS011;73871;49.900;8.594;2023-11-21T01:37:16;6.70;;;5.23;;
13979;SDS011;73871;49.900;8.594;2023-11-21T01:39:43;9.60;;;6.03;;
13979;SDS011;73871;49.900;8.594;2023-11-21T01:42:12;9.07;;;6.27;;
13979;SDS011;73871;49.900;8.594;2023-11-21T01:44:39;8.20;;;5.07;;
13979;SDS011;73871;49.900;8.594;2023-11-21T01:47:06;10.43;;;5.83;;
13979;SDS011;73871;49.900;8.594;2023-11-21T01:49:35;10.70;;;5.50;;
13979;SDS011;73871;49.900;8.594;2023-11-21T01:52:04;9.10;;;5.93;;
13979;SDS011;73871;49.900;8.594;2023-11-21T01:54:31;11.17;;;6.30;;
13979;SDS011;73871;49.900;8.594;2023-11-21T01:56:59;9.97;;;5.57;;
13979;SDS011;73871;49.900;8.594;2023-11-21T01:59:34;10.77;;;6.47;;
13979;SDS011;73871;49.900;8.594;2023-11-21T02:02:03;9.27;;;5.43;;
13979;SDS011;73871;49.900;8.594;2023-11-21T02:04:35;8.10;;;5.20;;
13979;SDS011;73871;49.900;8.594;2023-11-21T02:07:03;8.17;;;5.13;;
13979;SDS011;73871;49.900;8.594;2023-11-21T02:09:34;8.37;;;5.30;;
13979;SDS011;73871;49.900;8.594;2023-11-21T02:12:04;7.53;;;5.03;;
13979;SDS011;73871;49.900;8.594;2023-11-21T02:14:31;8.90;;;6.00;;
13979;SDS011;73871;49.900;8.594;2023-11-21T02:16:58;7.53;;;4.93;;
13979;SDS011;73871;49.900;8.594;2023-11-21T02:19:25;9.37;;;5.93;;
13979;SDS011;73871;49.900;8.594;2023-11-21T02:21:52;8.67;;;5.33;;
13979;SDS011;73871;49.900;8.594;2023-11-21T02:24:22;10.03;;;6.30;;
13979;SDS011;73871;49.900;8.594;2023-11-21T02:26:50;7.47;;;6.03;;
13979;SDS011;73871;49.900;8.594;2023-11-21T02:29:17;11.83;;;6.03;;
13979;SDS011;73871;49.900;8.594;2023-11-21T02:31:50;10.60;;;6.57;;
13979;SDS011;73871;49.900;8.594;2023-11-21T02:34:21;8.37;;;6.20;;
13979;SDS011;73871;49.900;8.594;2023-11-21T02:36:49;12.73;;;6.83;;
13979;SDS011;73871;49.900;8.594;2023-11-21T02:39:15;10.17;;;7.50;;
13979;SDS011;73871;49.900;8.594;2023-11-21T02:41:43;8.40;;;6.30;;
13979;SDS011;73871;49.900;8.594;2023-11-21T02:44:10;11.50;;;7.00;;
13979;SDS011;73871;49.900;8.594;2023-11-21T02:46:37;11.60;;;6.90;;
13979;SDS011;73871;49.900;8.594;2023-11-21T02:49:06;10.97;;;7.73;;
13979;SDS011;73871;49.900;8.594;2023-11-21T02:51:33;9.60;;;6.57;;
13979;SDS011;73871;49.900;8.594;2023-11-21T02:54:00;9.43;;;7.67;;
13979;SDS011;73871;49.900;8.594;2023-11-21T02:56:29;12.23;;;7.33;;
13979;SDS011;73871;49.900;8.594;2023-11-21T02:58:56;11.77;;;7.40;;
13979;SDS011;73871;49.900;8.594;2023-11-21T03:01:23;11.57;;;7.63;;
13979;SDS011;73871;49.900;8.594;2023-11-21T03:03:53;9.60;;;7.57;;
13979;SDS011;73871;49.900;8.594;2023-11-21T03:06:21;9.17;;;7.20;;
13979;SDS011;73871;49.900;8.594;2023-11-21T03:08:48;14.47;;;7.47;;
13979;SDS011;73871;49.900;8.594;2023-11-21T03:11:15;9.53;;;8.03;;
13979;SDS011;73871;49.900;8.594;2023-11-21T03:13:44;13.17;;;7.87;;
13979;SDS011;73871;49.900;8.594;2023-11-21T03:16:11;11.80;;;8.27;;
13979;SDS011;73871;49.900;8.594;2023-11-21T03:18:39;12.47;;;8.20;;
13979;SDS011;73871;49.900;8.594;2023-11-21T03:21:06;10.50;;;8.03;;
13979;SDS011;73871;49.900;8.594;2023-11-21T03:23:35;10.70;;;7.37;;
13979;SDS011;73871;49.900;8.594;2023-11-21T03:26:03;9.27;;;7.40;;
13979;SDS011;73871;49.900;8.594;2023-11-21T03:28:30;10.93;;;8.60;;
13979;SDS011;73871;49.900;8.594;2023-11-21T03:30:57;12.17;;;7.67;;
13979;SDS011;73871;49.900;8.594;2023-11-21T03:33:23;9.60;;;7.60;;
13979;SDS011;73871;49.900;8.594;2023-11-21T03:35:50;11.10;;;7.90;;
13979;SDS011;73871;49.900;8.594;2023-11-21T03:38:19;11.37;;;8.23;;
13979;SDS011;73871;49.900;8.594;2023-11-21T03:40:46;10.87;;;8.20;;
13979;SDS011;73871;49.900;8.594;2023-11-21T03:43:13;9.20;;;7.80;;
13979;SDS011;73871;49.900;8.594;2023-11-21T03:45:40;9.93;;;7.73;;
13979;SDS011;73871;49.900;8.594;2023-11-21T03:48:07;10.20;;;7.87;;
13979;SDS011;73871;49.900;8.594;2023-11-21T03:50:37;8.47;;;7.67;;
13979;SDS011;73871;49.900;8.594;2023-11-21T03:53:11;10.63;;;7.30;;
13979;SDS011;73871;49.900;8.594;2023-11-21T03:55:38;8.43;;;7.27;;
13979;SDS011;73871;49.900;8.594;2023-11-21T03:58:05;8.67;;;7.60;;
13979;SDS011;73871;49.900;8.594;2023-11-21T04:00:31;8.30;;;7.50;;
13979;SDS011;73871;49.900;8.594;2023-11-21T04:02:58;10.27;;;7.37;;
13979;SDS011;73871;49.900;8.594;2023-11-21T04:05:25;10.50;;;7.20;;
13979;SDS011;73871;49.900;8.594;2023-11-21T04:07:52;9.13;;;7.13;;
13979;SDS011;73871;49.900;8.594;2023-11-21T04:10:18;8.57;;;6.90;;
13979;SDS011;73871;49.900;8.594;2023-11-21T04:12:45;9.93;;;7.37;;
13979;SDS011;73871;49.900;8.594;2023-11-21T04:15:12;9.13;;;7.30;;
13979;SDS011;73871;49.900;8.594;2023-11-21T04:17:40;9.37;;;7.90;;
13979;SDS011;73871;49.900;8.594;2023-11-21T04:20:08;12.70;;;7.80;;
13979;SDS011;73871;49.900;8.594;2023-11-21T04:22:40;9.40;;;7.27;;
13979;SDS011;73871;49.900;8.594;2023-11-21T04:25:11;10.20;;;8.07;;
13979;SDS011;73871;49.900;8.594;2023-11-21T04:27:40;9.07;;;7.97;;
13979;SDS011;73871;49.900;8.594;2023-11-21T04:30:13;8.50;;;7.57;;
13979;SDS011;73871;49.900;8.594;2023-11-21T04:32:40;8.70;;;6.87;;
13979;SDS011;73871;49.900;8.594;2023-11-21T04:35:08;8.43;;;7.43;;
13979;SDS011;73871;49.900;8.594;2023-11-21T04:37:35;9.67;;;7.77;;
13979;SDS011;73871;49.900;8.594;2023-11-21T04:40:02;9.70;;;7.27;;
13979;SDS011;73871;49.900;8.594;2023-11-21T04:42:34;9.03;;;8.07;;
13979;SDS011;73871;49.900;8.594;2023-11-21T04:45:02;11.00;;;8.67;;
13979;SDS011;73871;49.900;8.594;2023-11-21T04:47:34;10.83;;;8.13;;
13979;SDS011;73871;49.900;8.594;2023-11-21T04:50:02;11.10;;;9.10;;
13979;SDS011;73871;49.900;8.594;2023-11-21T04:52:30;11.67;;;8.27;;
13979;SDS011;73871;49.900;8.594;2023-11-21T04:54:56;11.00;;;8.83;;
13979;SDS011;73871;49.900;8.594;2023-11-21T04:57:24;12.43;;;9.47;;
13979;SDS011;73871;49.900;8.594;2023-11-21T04:59:51;10.73;;;9.60;;
13979;SDS011;73871;49.900;8.594;2023-11-21T05:02:18;12.47;;;9.07;;
13979;SDS011;73871;49.900;8.594;2023-11-21T05:05:00;10.80;;;9.70;;
13979;SDS011;73871;49.900;8.594;2023-11-21T05:07:28;11.17;;;9.23;;
13979;SDS011;73871;49.900;8.594;2023-11-21T05:09:58;10.60;;;9.13;;
13979;SDS011;73871;49.900;8.594;2023-11-21T05:12:25;9.77;;;8.73;;
13979;SDS011;73871;49.900;8.594;2023-11-21T05:14:51;9.53;;;7.20;;
13979;SDS011;73871;49.900;8.594;2023-11-21T05:17:18;7.53;;;6.73;;
13979;SDS011;73871;49.900;8.594;2023-11-21T05:19:45;8.73;;;6.33;;
13979;SDS011;73871;49.900;8.594;2023-11-21T05:22:15;7.23;;;5.60;;
13979;SDS011;73871;49.900;8.594;2023-11-21T05:24:42;5.60;;;4.80;;
13979;SDS011;73871;49.900;8.594;2023-11-21T05:27:09;5.90;;;4.40;;
13979;SDS011;73871;49.900;8.594;2023-11-21T05:29:36;4.00;;;3.70;;
13979;SDS011;73871;49.900;8.594;2023-11-21T05:32:04;5.47;;;3.97;;
13979;SDS011;73871;49.900;8.594;2023-11-21T05:34:31;7.47;;;4.37;;
13979;SDS011;73871;49.900;8.594;2023-11-21T05:36:58;4.00;;;3.30;;
13979;SDS011;73871;49.900;8.594;2023-11-21T05:39:26;4.10;;;3.20;;
13979;SDS011;73871;49.900;8.594;2023-11-21T05:41:54;3.87;;;2.83;;
13979;SDS011;73871;49.900;8.594;2023-11-21T05:44:21;3.70;;;3.37;;
13979;SDS011;73871;49.900;8.594;2023-11-21T05:46:49;3.37;;;2.80;;
13979;SDS011;73871;49.900;8.594;2023-11-21T05:49:16;4.27;;;2.80;;
13979;SDS011;73871;49.900;8.594;2023-11-21T05:51:43;4.17;;;2.77;;
13979;SDS011;73871;49.900;8.594;2023-11-21T05:54:11;3.63;;;3.30;;
13979;SDS011;73871;49.900;8.594;2023-11-21T05:56:38;2.90;;;2.60;;
13979;SDS011;73871;49.900;8.594;2023-11-21T05:59:04;3.23;;;2.40;;
13979;SDS011;73871;49.900;8.594;2023-11-21T06:01:32;4.70;;;3.80;;
13979;SDS011;73871;49.900;8.594;2023-11-21T06:04:00;4.97;;;4.50;;
13979;SDS011;73871;49.900;8.594;2023-11-21T06:06:27;13.17;;;6.13;;
13979;SDS011;73871;49.900;8.594;2023-11-21T06:08:54;4.73;;;3.23;;
13979;SDS011;73871;49.900;8.594;2023-11-21T06:11:21;3.53;;;3.23;;
13979;SDS011;73871;49.900;8.594;2023-11-21T06:13:48;3.97;;;3.20;;
13979;SDS011;73871;49.900;8.594;2023-11-21T06:16:15;3.00;;;2.70;;
13979;SDS011;73871;49.900;8.594;2023-11-21T06:18:45;2.90;;;2.70;;
13979;SDS011;73871;49.900;8.594;2023-11-21T06:21:12;3.30;;;2.77;;
13979;SDS011;73871;49.900;8.594;2023-11-21T06:23:40;3.43;;;3.13;;
13979;SDS011;73871;49.900;8.594;2023-11-21T06:26:07;3.83;;;3.43;;
13979;SDS011;73871;49.900;8.594;2023-11-21T06:28:35;3.93;;;3.53;;
13979;SDS011;73871;49.900;8.594;2023-11-21T06:31:02;3.67;;;3.27;;
13979;SDS011;73871;49.900;8.594;2023-11-21T06:33:31;4.43;;;3.40;;
13979;SDS011;73871;49.900;8.594;2023-11-21T06:35:59;4.40;;;4.00;;
13979;SDS011;73871;49.900;8.594;2023-11-21T06:38:29;4.23;;;3.60;;
13979;SDS011;73871;49.900;8.594;2023-11-21T06:40:56;5.13;;;4.63;;
13979;SDS011;73871;49.900;8.594;2023-11-21T06:43:24;6.13;;;4.13;;
13979;SDS011;73871;49.900;8.594;2023-11-21T06:45:51;6.53;;;4.67;;
13979;SDS011;73871;49.900;8.594;2023-11-21T06:48:18;5.20;;;4.30;;
13979;SDS011;73871;49.900;8.594;2023-11-21T06:50:44;4.67;;;4.27;;
13979;SDS011;73871;49.900;8.594;2023-11-21T06:53:12;5.33;;;4.57;;
13979;SDS011;73871;49.900;8.594;2023-11-21T06:55:39;4.90;;;4.40;;
13979;SDS011;73871;49.900;8.594;2023-11-21T06:58:06;6.80;;;4.97;;
13979;SDS011;73871;49.900;8.594;2023-11-21T07:00:33;6.03;;;5.43;;
13979;SDS011;73871;49.900;8.594;2023-11-21T07:03:00;6.83;;;5.90;;
13979;SDS011;73871;49.900;8.594;2023-11-21T07:05:27;7.00;;;5.90;;
13979;SDS011;73871;49.900;8.594;2023-11-21T07:07:53;7.30;;;5.70;;
13979;SDS011;73871;49.900;8.594;2023-11-21T07:10:20;8.10;;;5.53;;
13979;SDS011;73871;49.900;8.594;2023-11-21T07:12:47;6.63;;;5.93;;
13979;SDS011;73871;49.900;8.594;2023-11-21T07:15:14;8.60;;;6.70;;
13979;SDS011;73871;49.900;8.594;2023-11-21T07:17:41;7.43;;;6.57;;
13979;SDS011;73871;49.900;8.594;2023-11-21T07:20:08;7.57;;;6.77;;
13979;SDS011;73871;49.900;8.594;2023-11-21T07:22:37;7.90;;;7.07;;
13979;SDS011;73871;49.900;8.594;2023-11-21T07:25:03;7.97;;;7.17;;
13979;SDS011;73871;49.900;8.594;2023-11-21T07:27:31;9.30;;;6.97;;
13979;SDS011;73871;49.900;8.594;2023-11-21T07:30:00;9.47;;;7.53;;
13979;SDS011;73871;49.900;8.594;2023-11-21T07:32:26;9.63;;;7.77;;
13979;SDS011;73871;49.900;8.594;2023-11-21T07:34:53;8.50;;;6.97;;
13979;SDS011;73871;49.900;8.594;2023-11-21T07:37:20;10.13;;;7.70;;
13979;SDS011;73871;49.900;8.594;2023-11-21T07:39:49;10.40;;;8.30;;
13979;SDS011;73871;49.900;8.594;2023-11-21T07:42:22;10.10;;;8.33;;
13979;SDS011;73871;49.900;8.594;2023-11-21T07:44:51;12.17;;;9.03;;
13979;SDS011;73871;49.900;8.594;2023-11-21T07:47:18;11.57;;;9.00;;
13979;SDS011;73871;49.900;8.594;2023-11-21T07:49:45;10.93;;;9.27;;
13979;SDS011;73871;49.900;8.594;2023-11-21T07:52:13;11.30;;;9.40;;
13979;SDS011;73871;49.900;8.594;2023-11-21T07:54:42;12.87;;;9.10;;
13979;SDS011;73871;49.900;8.594;2023-11-21T07:57:09;14.67;;;11.20;;
13979;SDS011;73871;49.900;8.594;2023-11-21T07:59:40;12.93;;;10.27;;
13979;SDS011;73871;49.900;8.594;2023-11-21T08:02:07;14.40;;;10.80;;
13979;SDS011;73871;49.900;8.594;2023-11-21T08:04:34;15.60;;;11.27;;
13979;SDS011;73871;49.900;8.594;2023-11-21T08:07:01;15.67;;;11.53;;
13979;SDS011;73871;49.900;8.594;2023-11-21T08:09:30;13.87;;;10.53;;
13979;SDS011;73871;49.900;8.594;2023-11-21T08:11:56;13.77;;;10.77;;
13979;SDS011;73871;49.900;8.594;2023-11-21T08:14:24;15.70;;;11.10;;
13979;SDS011;73871;49.900;8.594;2023-11-21T08:16:51;14.43;;;9.97;;
13979;SDS011;73871;49.900;8.594;2023-11-21T08:19:18;11.67;;;9.60;;
13979;SDS011;73871;49.900;8.594;2023-11-21T08:21:45;12.70;;;9.97;;
13979;SDS011;73871;49.900;8.594;2023-11-21T08:24:12;12.60;;;9.20;;
13979;SDS011;73871;49.900;8.594;2023-11-21T08:26:38;13.13;;;10.17;;
13979;SDS011;73871;49.900;8.594;2023-11-21T08:29:05;11.93;;;9.40;;
13979;SDS011;73871;49.900;8.594;2023-11-21T08:31:33;11.30;;;9.03;;
13979;SDS011;73871;49.900;8.594;2023-11-21T08:34:00;10.90;;;8.70;;
13979;SDS011;73871;49.900;8.594;2023-11-21T08:36:29;10.47;;;7.90;;
13979;SDS011;73871;49.900;8.594;2023-11-21T08:38:58;12.43;;;9.07;;
13979;SDS011;73871;49.900;8.594;2023-11-21T08:41:24;9.97;;;8.70;;
13979;SDS011;73871;49.900;8.594;2023-11-21T08:43:54;11.47;;;7.90;;
13979;SDS011;73871;49.900;8.594;2023-11-21T08:46:21;11.27;;;7.80;;
13979;SDS011;73871;49.900;8.594;2023-11-21T08:48:49;8.47;;;7.60;;
13979;SDS011;73871;49.900;8.594;2023-11-21T08:51:18;9.07;;;7.53;;
13979;SDS011;73871;49.900;8.594;2023-11-21T08:53:45;11.20;;;8.00;;
13979;SDS011;73871;49.900;8.594;2023-11-21T08:56:15;8.17;;;7.30;;
13979;SDS011;73871;49.900;8.594;2023-11-21T08:58:42;9.17;;;7.73;;
13979;SDS011;73871;49.900;8.594;2023-11-21T09:01:09;9.23;;;7.07;;
13979;SDS011;73871;49.900;8.594;2023-11-21T09:03:36;12.07;;;7.70;;
13979;SDS011;73871;49.900;8.594;2023-11-21T09:06:02;9.20;;;7.87;;
13979;SDS011;73871;49.900;8.594;2023-11-21T09:08:30;10.30;;;7.37;;
13979;SDS011;73871;49.900;8.594;2023-11-21T09:10:58;8.33;;;7.17;;
13979;SDS011;73871;49.900;8.594;2023-11-21T09:13:24;8.30;;;7.03;;
13979;SDS011;73871;49.900;8.594;2023-11-21T09:15:51;9.03;;;6.77;;
13979;SDS011;73871;49.900;8.594;2023-11-21T09:18:18;8.10;;;6.60;;
13979;SDS011;73871;49.900;8.594;2023-11-21T09:20:45;9.73;;;6.43;;
13979;SDS011;73871;49.900;8.594;2023-11-21T09:23:12;8.90;;;7.10;;
13979;SDS011;73871;49.900;8.594;2023-11-21T09:25:38;9.63;;;6.80;;
13979;SDS011;73871;49.900;8.594;2023-11-21T09:28:05;9.37;;;6.70;;
13979;SDS011;73871;49.900;8.594;2023-11-21T09:30:34;7.93;;;6.50;;
13979;SDS011;73871;49.900;8.594;2023-11-21T09:33:02;9.43;;;6.77;;
13979;SDS011;73871;49.900;8.594;2023-11-21T09:35:28;8.87;;;6.00;;
13979;SDS011;73871;49.900;8.594;2023-11-21T09:37:55;8.13;;;6.30;;
13979;SDS011;73871;49.900;8.594;2023-11-21T09:40:22;8.13;;;6.40;;
13979;SDS011;73871;49.900;8.594;2023-11-21T09:42:52;7.67;;;6.10;;
13979;SDS011;73871;49.900;8.594;2023-11-21T09:45:27;8.67;;;6.80;;
13979;SDS011;73871;49.900;8.594;2023-11-21T09:48:00;8.13;;;6.20;;
13979;SDS011;73871;49.900;8.594;2023-11-21T09:50:28;10.10;;;6.33;;
13979;SDS011;73871;49.900;8.594;2023-11-21T09:53:04;7.53;;;6.00;;
13979;SDS011;73871;49.900;8.594;2023-11-21T09:55:47;7.57;;;6.50;;
13979;SDS011;73871;49.900;8.594;2023-11-21T09:58:17;11.00;;;6.93;;
13979;SDS011;73871;49.900;8.594;2023-11-21T10:00:46;8.43;;;6.87;;
13979;SDS011;73871;49.900;8.594;2023-11-21T10:03:14;8.93;;;6.77;;
13979;SDS011;73871;49.900;8.594;2023-11-21T10:05:42;11.13;;;7.50;;
13979;SDS011;73871;49.900;8.594;2023-11-21T10:08:10;8.97;;;6.60;;
13979;SDS011;73871;49.900;8.594;2023-11-21T10:10:42;9.13;;;7.10;;
13979;SDS011;73871;49.900;8.594;2023-11-21T10:13:14;8.60;;;6.33;;
13979;SDS011;73871;49.900;8.594;2023-11-21T10:15:51;8.37;;;6.80;;
13979;SDS011;73871;49.900;8.594;2023-11-21T10:18:19;10.63;;;6.00;;
13979;SDS011;73871;49.900;8.594;2023-11-21T10:20:48;11.23;;;5.57;;
13979;SDS011;73871;49.900;8.594;2023-11-21T10:23:20;10.13;;;6.50;;
13979;SDS011;73871;49.900;8.594;2023-11-21T10:25:49;7.87;;;6.23;;
13979;SDS011;73871;49.900;8.594;2023-11-21T10:28:18;7.13;;;5.73;;
13979;SDS011;73871;49.900;8.594;2023-11-21T10:30:45;7.47;;;5.53;;
13979;SDS011;73871;49.900;8.594;2023-11-21T10:33:12;8.97;;;5.53;;
13979;SDS011;73871;49.900;8.594;2023-11-21T10:35:42;9.60;;;5.80;;
13979;SDS011;73871;49.900;8.594;2023-11-21T10:38:21;8.00;;;5.63;;
13979;SDS011;73871;49.900;8.594;2023-11-21T10:40:50;7.37;;;5.20;;
13979;SDS011;73871;49.900;8.594;2023-11-21T10:43:18;5.73;;;4.80;;
13979;SDS011;73871;49.900;8.594;2023-11-21T10:45:45;8.17;;;4.37;;
13979;SDS011;73871;49.900;8.594;2023-11-21T10:48:13;5.13;;;4.17;;
13979;SDS011;73871;49.900;8.594;2023-11-21T10:50:46;4.53;;;4.10;;
13979;SDS011;73871;49.900;8.594;2023-11-21T10:53:14;5.67;;;4.07;;
13979;SDS011;73871;49.900;8.594;2023-11-21T10:55:42;4.70;;;3.97;;
13979;SDS011;73871;49.900;8.594;2023-11-21T10:58:11;7.20;;;4.40;;
13979;SDS011;73871;49.900;8.594;2023-11-21T11:00:40;5.10;;;3.87;;
13979;SDS011;73871;49.900;8.594;2023-11-21T11:03:08;7.50;;;4.03;;
13979;SDS011;73871;49.900;8.594;2023-11-21T11:05:43;7.27;;;3.70;;
13979;SDS011;73871;49.900;8.594;2023-11-21T11:08:28;4.93;;;4.10;;
13979;SDS011;73871;49.900;8.594;2023-11-21T11:10:56;6.83;;;3.93;;
13979;SDS011;73871;49.900;8.594;2023-11-21T11:13:24;8.07;;;3.67;;
13979;SDS011;73871;49.900;8.594;2023-11-21T11:15:54;5.27;;;4.07;;
13979;SDS011;73871;49.900;8.594;2023-11-21T11:18:28;4.23;;;3.07;;
13979;SDS011;73871;49.900;8.594;2023-11-21T11:21:07;6.87;;;3.10;;
13979;SDS011;73871;49.900;8.594;2023-11-21T11:26:37;4.33;;;3.37;;
13979;SDS011;73871;49.900;8.594;2023-11-21T11:35:24;5.93;;;3.80;;
13979;SDS011;73871;49.900;8.594;2023-11-21T11:37:36;4.73;;;3.23;;
13979;SDS011;73871;49.900;8.594;2023-11-21T11:40:05;6.60;;;3.80;;
13979;SDS011;73871;49.900;8.594;2023-11-21T11:42:33;5.00;;;3.13;;
13979;SDS011;73871;49.900;8.594;2023-11-21T11:44:59;7.30;;;3.87;;
13979;SDS011;73871;49.900;8.594;2023-11-21T11:52:39;8.03;;;3.63;;
13979;SDS011;73871;49.900;8.594;2023-11-21T11:55:08;5.33;;;3.13;;
13979;SDS011;73871;49.900;8.594;2023-11-21T11:57:37;5.97;;;3.70;;
13979;SDS011;73871;49.900;8.594;2023-11-21T12:00:12;4.97;;;3.23;;
13979;SDS011;73871;49.900;8.594;2023-11-21T12:02:52;8.17;;;3.33;;
13979;SDS011;73871;49.900;8.594;2023-11-21T12:05:33;6.27;;;3.10;;
13979;SDS011;73871;49.900;8.594;2023-11-21T12:08:08;4.43;;;3.50;;
13979;SDS011;73871;49.900;8.594;2023-11-21T12:10:36;6.93;;;3.60;;
13979;SDS011;73871;49.900;8.594;2023-11-21T12:13:09;5.07;;;4.00;;
13979;SDS011;73871;49.900;8.594;2023-11-21T12:15:38;8.27;;;4.40;;
13979;SDS011;73871;49.900;8.594;2023-11-21T12:18:07;6.93;;;4.63;;
13979;SDS011;73871;49.900;8.594;2023-11-21T12:20:34;7.53;;;4.23;;
13979;SDS011;73871;49.900;8.594;2023-11-21T12:23:08;9.43;;;4.50;;
13979;SDS011;73871;49.900;8.594;2023-11-21T12:25:37;8.23;;;4.03;;
13979;SDS011;73871;49.900;8.594;2023-11-21T12:28:08;5.60;;;4.37;;
13979;SDS011;73871;49.900;8.594;2023-11-21T12:30:35;6.37;;;3.90;;
13979;SDS011;73871;49.900;8.594;2023-11-21T12:33:04;6.23;;;4.47;;
13979;SDS011;73871;49.900;8.594;2023-11-21T12:35:33;5.77;;;4.70;;
13979;SDS011;73871;49.900;8.594;2023-11-21T12:38:02;9.13;;;4.87;;
13979;SDS011;73871;49.900;8.594;2023-11-21T12:40:30;6.87;;;3.83;;
13979;SDS011;73871;49.900;8.594;2023-11-21T12:42:57;9.67;;;4.67;;
13979;SDS011;73871;49.900;8.594;2023-11-21T12:45:27;7.37;;;4.40;;
13979;SDS011;73871;49.900;8.594;2023-11-21T12:47:57;10.17;;;4.60;;
13979;SDS011;73871;49.900;8.594;2023-11-21T12:50:35;10.07;;;4.70;;
13979;SDS011;73871;49.900;8.594;2023-11-21T12:53:04;10.67;;;4.97;;
13979;SDS011;73871;49.900;8.594;2023-11-21T12:55:35;9.23;;;4.63;;
13979;SDS011;73871;49.900;8.594;2023-11-21T12:58:05;7.73;;;4.77;;
13979;SDS011;73871;49.900;8.594;2023-11-21T13:03:15;9.97;;;5.37;;
13979;SDS011;73871;49.900;8.594;2023-11-21T13:05:46;6.60;;;4.57;;
13979;SDS011;73871;49.900;8.594;2023-11-21T13:08:19;6.80;;;5.00;;
13979;SDS011;73871;49.900;8.594;2023-11-21T13:10:49;7.30;;;5.17;;
13979;SDS011;73871;49.900;8.594;2023-11-21T13:13:23;6.13;;;4.40;;
13979;SDS011;73871;49.900;8.594;2023-11-21T13:15:55;7.77;;;4.37;;
13979;SDS011;73871;49.900;8.594;2023-11-21T13:18:31;7.93;;;4.63;;
13979;SDS011;73871;49.900;8.594;2023-11-21T13:20:59;7.30;;;4.60;;
13979;SDS011;73871;49.900;8.594;2023-11-21T13:23:42;7.00;;;4.70;;
13979;SDS011;73871;49.900;8.594;2023-11-21T13:26:12;6.60;;;4.63;;
13979;SDS011;73871;49.900;8.594;2023-11-21T13:28:40;7.90;;;5.37;;
13979;SDS011;73871;49.900;8.594;2023-11-21T13:31:12;10.93;;;5.30;;
13979;SDS011;73871;49.900;8.594;2023-11-21T13:33:58;6.63;;;5.23;;
13979;SDS011;73871;49.900;8.594;2023-11-21T13:36:31;7.27;;;5.70;;
13979;SDS011;73871;49.900;8.594;2023-11-21T13:39:02;10.17;;;5.90;;
13979;SDS011;73871;49.900;8.594;2023-11-21T13:41:34;10.47;;;6.17;;
13979;SDS011;73871;49.900;8.594;2023-11-21T13:44:04;7.70;;;5.37;;
13979;SDS011;73871;49.900;8.594;2023-11-21T13:46:43;11.43;;;5.47;;
13979;SDS011;73871;49.900;8.594;2023-11-21T13:49:12;7.47;;;5.23;;
13979;SDS011;73871;49.900;8.594;2023-11-21T13:51:40;7.33;;;5.10;;
13979;SDS011;73871;49.900;8.594;2023-11-21T13:54:10;8.10;;;5.43;;
13979;SDS011;73871;49.900;8.594;2023-11-21T13:56:37;8.83;;;5.07;;
13979;SDS011;73871;49.900;8.594;2023-11-21T13:59:06;7.27;;;5.10;;
13979;SDS011;73871;49.900;8.594;2023-11-21T14:01:44;7.80;;;5.20;;
13979;SDS011;73871;49.900;8.594;2023-11-21T14:04:21;7.07;;;5.23;;
13979;SDS011;73871;49.900;8.594;2023-11-21T14:07:19;7.43;;;4.60;;
13979;SDS011;73871;49.900;8.594;2023-11-21T14:10:01;8.60;;;4.20;;
13979;SDS011;73871;49.900;8.594;2023-11-21T14:12:29;5.20;;;3.93;;
13979;SDS011;73871;49.900;8.594;2023-11-21T14:15:04;9.57;;;4.23;;
13979;SDS011;73871;49.900;8.594;2023-11-21T14:17:33;5.93;;;4.00;;
13979;SDS011;73871;49.900;8.594;2023-11-21T14:20:02;6.13;;;4.30;;
13979;SDS011;73871;49.900;8.594;2023-11-21T14:22:31;7.90;;;3.80;;
13979;SDS011;73871;49.900;8.594;2023-11-21T14:24:58;8.77;;;4.93;;
13979;SDS011;73871;49.900;8.594;2023-11-21T14:27:29;7.13;;;3.63;;
13979;SDS011;73871;49.900;8.594;2023-11-21T14:29:56;5.43;;;4.10;;
13979;SDS011;73871;49.900;8.594;2023-11-21T14:32:24;6.67;;;4.60;;
13979;SDS011;73871;49.900;8.594;2023-11-21T14:34:52;8.53;;;4.53;;
13979;SDS011;73871;49.900;8.594;2023-11-21T14:37:18;6.03;;;4.30;;
13979;SDS011;73871;49.900;8.594;2023-11-21T14:39:46;8.07;;;4.07;;
13979;SDS011;73871;49.900;8.594;2023-11-21T14:42:16;6.43;;;4.37;;
13979;SDS011;73871;49.900;8.594;2023-11-21T14:44:47;8.17;;;3.77;;
13979;SDS011;73871;49.900;8.594;2023-11-21T14:47:14;5.53;;;4.40;;
13979;SDS011;73871;49.900;8.594;2023-11-21T14:49:42;7.13;;;4.80;;
13979;SDS011;73871;49.900;8.594;2023-11-21T14:52:19;6.27;;;4.40;;
13979;SDS011;73871;49.900;8.594;2023-11-21T14:55:04;8.03;;;4.40;;
13979;SDS011;73871;49.900;8.594;2023-11-21T14:57:51;7.93;;;4.97;;
13979;SDS011;73871;49.900;8.594;2023-11-21T15:00:20;7.17;;;4.40;;
13979;SDS011;73871;49.900;8.594;2023-11-21T15:03:03;12.47;;;4.53;;
13979;SDS011;73871;49.900;8.594;2023-11-21T15:05:30;6.83;;;5.00;;
13979;SDS011;73871;49.900;8.594;2023-11-21T15:07:57;6.17;;;4.57;;
13979;SDS011;73871;49.900;8.594;2023-11-21T15:10:37;8.07;;;5.17;;